TimeEDT,TemperatureF,Dew PointF,Humidity,Sea Level PressureIn,VisibilityMPH,Wind Direction,Wind SpeedMPH,Gust SpeedMPH,PrecipitationIn,Events,Conditions,WindDirDegrees,DateUTC
12:15 AM,66.2,64.4,94,29.97,10.0,Calm,Calm,-,N/A,,Clear,0,2013-07-21 04:15:00
12:35 AM,66.2,64.4,94,29.97,2.5,Calm,Calm,-,N/A,,Clear,0,2013-07-21 04:35:00
12:55 AM,66.2,64.4,94,29.97,1.0,Calm,Calm,-,N/A,,Clear,0,2013-07-21 04:55:00
1:15 AM,64.4,62.6,94,29.97,0.2,SW,3.5,-,N/A,,Mostly Cloudy,220,2013-07-21 05:15:00
1:35 AM,64.4,62.6,94,29.97,0.5,Calm,Calm,-,N/A,,Unknown,0,2013-07-21 05:35:00
1:55 AM,64.4,62.6,94,29.97,0.2,Calm,Calm,-,N/A,,Mostly Cloudy,0,2013-07-21 05:55:00
2:15 AM,64.4,62.6,94,29.98,0.2,Calm,Calm,-,N/A,,Overcast,0,2013-07-21 06:15:00
2:35 AM,64.4,62.6,94,29.97,0.2,Calm,Calm,-,N/A,,Overcast,0,2013-07-21 06:35:00
2:55 AM,64.4,62.6,94,29.97,0.2,Calm,Calm,-,N/A,,Overcast,0,2013-07-21 06:55:00
3:15 AM,64.4,62.6,94,29.97,0.2,Calm,Calm,-,N/A,,Overcast,0,2013-07-21 07:15:00
3:35 AM,62.6,60.8,94,29.97,0.5,NNE,3.5,-,N/A,,Overcast,30,2013-07-21 07:35:00
3:55 AM,64.4,62.6,94,29.98,0.2,Calm,Calm,-,N/A,,Overcast,0,2013-07-21 07:55:00
4:15 AM,62.6,62.6,100,29.98,0.2,Calm,Calm,-,N/A,,Overcast,0,2013-07-21 08:15:00
4:35 AM,62.6,60.8,94,29.98,0.2,Calm,Calm,-,N/A,,Overcast,0,2013-07-21 08:35:00
4:55 AM,62.6,60.8,94,29.99,0.5,Calm,Calm,-,N/A,,Overcast,0,2013-07-21 08:55:00
5:15 AM,62.6,60.8,94,29.99,0.2,Calm,Calm,-,N/A,,Overcast,0,2013-07-21 09:15:00
5:35 AM,62.6,62.6,100,29.99,0.2,Calm,Calm,-,N/A,,Overcast,0,2013-07-21 09:35:00
5:55 AM,62.6,62.6,100,29.99,0.2,Calm,Calm,-,N/A,,Overcast,0,2013-07-21 09:55:00
6:15 AM,64.4,62.6,94,30.00,0.2,Calm,Calm,-,N/A,,Overcast,0,2013-07-21 10:15:00
6:35 AM,62.6,60.8,94,30.01,0.2,Calm,Calm,-,N/A,,Overcast,0,2013-07-21 10:35:00
6:55 AM,62.6,62.6,100,30.01,0.2,Calm,Calm,-,N/A,,Overcast,0,2013-07-21 10:55:00
7:15 AM,64.4,62.6,94,30.01,0.2,Calm,Calm,-,N/A,,Overcast,0,2013-07-21 11:15:00
7:35 AM,64.4,62.6,94,30.01,0.2,Calm,Calm,-,N/A,,Overcast,0,2013-07-21 11:35:00
7:55 AM,66.2,64.4,94,30.01,0.5,Calm,Calm,-,N/A,,Overcast,0,2013-07-21 11:55:00
8:15 AM,66.2,64.4,94,30.01,0.2,NE,3.5,-,N/A,,Overcast,40,2013-07-21 12:15:00
8:35 AM,66.2,64.4,94,30.01,0.2,East,3.5,-,N/A,,Overcast,80,2013-07-21 12:35:00
8:55 AM,66.2,64.4,94,30.02,0.2,ENE,3.5,-,N/A,,Overcast,70,2013-07-21 12:55:00
9:15 AM,66.2,66.2,100,30.02,0.5,Calm,Calm,-,N/A,,Overcast,0,2013-07-21 13:15:00
9:35 AM,68.0,66.2,94,30.02,1.8,Calm,Calm,-,N/A,,Overcast,0,2013-07-21 13:35:00
9:55 AM,68.0,66.2,94,30.03,2.5,Calm,Calm,-,N/A,,Overcast,0,2013-07-21 13:55:00
10:15 AM,69.8,66.2,88,30.03,10.0,ESE,3.5,-,N/A,,Overcast,120,2013-07-21 14:15:00
10:35 AM,69.8,66.2,88,30.03,10.0,ESE,5.8,-,N/A,,Overcast,110,2013-07-21 14:35:00
10:55 AM,71.6,66.2,83,30.04,10.0,ESE,5.8,-,N/A,,Overcast,120,2013-07-21 14:55:00
11:15 AM,71.6,66.2,83,30.04,10.0,SE,6.9,-,N/A,,Overcast,130,2013-07-21 15:15:00
11:35 AM,73.4,66.2,78,30.04,10.0,Calm,Calm,-,N/A,,Mostly Cloudy,0,2013-07-21 15:35:00
11:55 AM,73.4,66.2,78,30.04,10.0,Calm,Calm,-,N/A,,Scattered Clouds,0,2013-07-21 15:55:00
12:15 PM,75.2,64.4,69,30.04,10.0,Calm,Calm,-,N/A,,Partly Cloudy,0,2013-07-21 16:15:00
12:35 PM,78.8,62.6,57,30.04,10.0,Calm,Calm,-,N/A,,Clear,0,2013-07-21 16:35:00
12:55 PM,78.8,60.8,54,30.04,10.0,Calm,Calm,-,N/A,,Clear,0,2013-07-21 16:55:00
1:15 PM,80.6,62.6,54,30.03,10.0,East,4.6,-,N/A,,Clear,100,2013-07-21 17:15:00
1:35 PM,78.8,62.6,57,30.03,10.0,SSW,4.6,-,N/A,,Scattered Clouds,210,2013-07-21 17:35:00
1:55 PM,80.6,62.6,54,30.03,10.0,Calm,Calm,-,N/A,,Scattered Clouds,0,2013-07-21 17:55:00
2:15 PM,80.6,62.6,54,30.02,10.0,Calm,Calm,-,N/A,,Scattered Clouds,0,2013-07-21 18:15:00
2:35 PM,80.6,62.6,54,30.02,10.0,Calm,Calm,-,N/A,,Scattered Clouds,0,2013-07-21 18:35:00
2:55 PM,82.4,64.4,54,30.01,10.0,Calm,Calm,-,N/A,,Mostly Cloudy,0,2013-07-21 18:55:00
3:15 PM,82.4,62.6,51,30.01,10.0,North,4.6,-,N/A,,Mostly Cloudy,360,2013-07-21 19:15:00
3:35 PM,80.6,62.6,54,30.00,10.0,Calm,Calm,-,N/A,,Overcast,0,2013-07-21 19:35:00
3:55 PM,80.6,62.6,54,30.00,10.0,Calm,Calm,-,N/A,,Scattered Clouds,0,2013-07-21 19:55:00
4:15 PM,82.4,62.6,51,29.99,10.0,Calm,Calm,-,N/A,,Scattered Clouds,0,2013-07-21 20:15:00
4:35 PM,80.6,62.6,54,29.99,10.0,North,4.6,-,N/A,,Partly Cloudy,10,2013-07-21 20:35:00
4:55 PM,80.6,62.6,54,29.99,10.0,NNW,3.5,-,N/A,,Scattered Clouds,340,2013-07-21 20:55:00
5:15 PM,80.6,62.6,54,29.99,10.0,NW,3.5,-,N/A,,Clear,320,2013-07-21 21:15:00
5:35 PM,80.6,62.6,54,29.99,10.0,Calm,Calm,-,N/A,,Clear,0,2013-07-21 21:35:00
5:55 PM,80.6,62.6,54,29.98,10.0,Calm,Calm,-,N/A,,Clear,0,2013-07-21 21:55:00
6:15 PM,78.8,62.6,57,29.98,10.0,Calm,Calm,-,N/A,,Clear,0,2013-07-21 22:15:00
6:35 PM,80.6,64.4,58,29.98,10.0,NW,3.5,-,N/A,,Clear,310,2013-07-21 22:35:00
6:55 PM,78.8,64.4,61,29.98,10.0,NNW,4.6,-,N/A,,Clear,340,2013-07-21 22:55:00
7:15 PM,77.0,64.4,65,29.99,10.0,North,4.6,-,N/A,,Clear,350,2013-07-21 23:15:00
7:35 PM,75.2,64.4,69,29.99,10.0,North,6.9,-,N/A,,Partly Cloudy,350,2013-07-21 23:35:00
7:55 PM,75.2,64.4,69,29.99,10.0,North,5.8,-,N/A,,Clear,360,2013-07-21 23:55:00
8:15 PM,73.4,62.6,69,29.99,10.0,North,5.8,-,N/A,,Clear,360,2013-07-22 00:15:00
8:35 PM,73.4,62.6,69,29.99,10.0,North,6.9,-,N/A,,Clear,10,2013-07-22 00:35:00
8:55 PM,71.6,62.6,73,29.99,10.0,North,5.8,-,N/A,,Clear,10,2013-07-22 00:55:00
9:15 PM,69.8,62.6,78,30.00,10.0,NNE,8.1,-,N/A,,Clear,20,2013-07-22 01:15:00
9:35 PM,69.8,60.8,73,30.01,10.0,NNE,6.9,-,N/A,,Clear,30,2013-07-22 01:35:00
9:55 PM,69.8,60.8,73,30.01,10.0,NNE,5.8,-,N/A,,Mostly Cloudy,30,2013-07-22 01:55:00
10:15 PM,69.8,60.8,73,30.02,10.0,NE,5.8,-,N/A,,Overcast,40,2013-07-22 02:15:00
10:35 PM,69.8,60.8,73,30.02,10.0,NNE,6.9,-,N/A,,Overcast,20,2013-07-22 02:35:00
10:55 PM,69.8,60.8,73,30.02,10.0,NE,5.8,-,N/A,,Mostly Cloudy,40,2013-07-22 02:55:00
11:15 PM,68.0,60.8,78,30.02,10.0,North,6.9,-,N/A,,Mostly Cloudy,10,2013-07-22 03:15:00
11:35 PM,66.2,62.6,88,30.03,10.0,North,3.5,-,N/A,,Mostly Cloudy,360,2013-07-22 03:35:00
11:55 PM,66.2,60.8,83,30.03,10.0,NNE,5.8,-,N/A,,Scattered Clouds,20,2013-07-22 03:55:00